createdAt,value
2022-11-30T00:01:25.907Z,22.40
2022-11-30T00:06:30.011Z,22.41
2022-11-30T00:11:33.842Z,22.43
2022-11-30T00:16:36.692Z,22.43
2022-11-30T00:21:40.993Z,22.48
2022-11-30T00:26:44.459Z,22.50
2022-11-30T00:31:47.446Z,22.51
2022-11-30T00:36:51.610Z,22.48
2022-11-30T00:41:54.382Z,22.51
2022-11-30T00:46:57.141Z,22.55
2022-11-30T00:52:01.443Z,22.59
2022-11-30T00:57:04.284Z,22.57
2022-11-30T01:02:07.242Z,22.61
2022-11-30T01:07:11.424Z,22.64
2022-11-30T01:12:15.608Z,22.64
2022-11-30T01:17:18.895Z,22.66
2022-11-30T01:22:23.019Z,22.64
2022-11-30T01:27:25.815Z,22.64
2022-11-30T01:32:29.187Z,22.67
2022-11-30T01:37:33.583Z,22.70
2022-11-30T01:42:37.966Z,22.67
2022-11-30T01:47:44.260Z,22.69
2022-11-30T01:52:51.708Z,22.67
2022-11-30T01:58:00.084Z,22.69
2022-11-30T02:03:08.468Z,22.68
2022-11-30T02:08:13.019Z,22.66
2022-11-30T02:13:31.587Z,22.62
2022-11-30T02:18:47.848Z,22.57
2022-11-30T02:24:07.432Z,22.52
2022-11-30T02:29:17.561Z,22.49
2022-11-30T02:34:23.181Z,22.42
2022-11-30T02:39:26.200Z,22.36
2022-11-30T02:44:31.387Z,22.34
2022-11-30T02:49:39.371Z,22.28
2022-11-30T02:54:42.587Z,22.27
2022-11-30T02:59:46.885Z,22.26
2022-11-30T03:04:49.722Z,22.21
2022-11-30T03:09:52.560Z,22.18
2022-11-30T03:14:56.645Z,22.16
2022-11-30T03:19:59.438Z,22.10
2022-11-30T03:25:02.419Z,22.08
2022-11-30T03:30:08.215Z,22.06
2022-11-30T03:35:11.196Z,22.02
2022-11-30T03:40:14.250Z,21.99
2022-11-30T03:45:18.615Z,21.96
2022-11-30T03:50:21.407Z,21.91
2022-11-30T03:55:24.307Z,21.87
2022-11-30T04:00:28.509Z,21.82
2022-11-30T04:05:31.416Z,21.78
2022-11-30T04:10:34.355Z,21.73
2022-11-30T04:15:38.466Z,21.71
2022-11-30T04:20:41.962Z,21.71
2022-11-30T04:25:44.841Z,21.68
2022-11-30T04:30:49.321Z,21.64
2022-11-30T04:35:55.961Z,21.59
2022-11-30T04:40:58.768Z,21.58
2022-11-30T04:46:03.085Z,21.52
2022-11-30T04:51:08.229Z,21.47
2022-11-30T04:56:12.933Z,21.41
2022-11-30T05:01:17.523Z,21.39
2022-11-30T05:06:20.571Z,21.34
2022-11-30T05:11:23.346Z,21.30
2022-11-30T05:16:27.778Z,21.25
2022-11-30T05:21:30.680Z,21.22
2022-11-30T05:26:34.251Z,21.17
2022-11-30T05:31:39.788Z,21.12
2022-11-30T05:36:42.672Z,21.08
2022-11-30T05:41:45.540Z,21.05
2022-11-30T05:46:50.089Z,21.00
2022-11-30T05:51:52.960Z,20.97
2022-11-30T05:56:55.853Z,20.93
2022-11-30T06:02:00.067Z,20.89
2022-11-30T06:07:04.374Z,20.83
2022-11-30T06:12:07.847Z,20.80
2022-11-30T06:17:11.980Z,20.76
2022-11-30T06:22:14.797Z,20.73
2022-11-30T06:27:17.596Z,20.70
2022-11-30T06:32:21.737Z,20.67
2022-11-30T06:37:24.464Z,20.63
2022-11-30T06:42:27.239Z,20.59
2022-11-30T06:47:31.468Z,20.55
2022-11-30T06:52:34.368Z,20.52
2022-11-30T06:57:37.205Z,20.49
2022-11-30T07:02:41.647Z,20.46
2022-11-30T07:07:44.451Z,20.42
2022-11-30T07:12:47.283Z,20.40
2022-11-30T07:17:51.409Z,20.37
2022-11-30T07:22:56.441Z,20.33
2022-11-30T07:27:59.282Z,20.31
2022-11-30T07:33:03.549Z,20.28
2022-11-30T07:38:09.707Z,20.26
2022-11-30T07:43:12.755Z,20.23
2022-11-30T07:48:16.841Z,20.21
2022-11-30T07:53:19.804Z,20.21
2022-11-30T07:58:22.561Z,20.18
2022-11-30T08:03:26.656Z,20.17
2022-11-30T08:08:33.571Z,20.21
2022-11-30T08:13:36.397Z,20.32
2022-11-30T08:18:41.121Z,20.43
2022-11-30T08:23:46.074Z,20.48
2022-11-30T08:28:50.699Z,20.50
2022-11-30T08:33:58.414Z,20.51
2022-11-30T08:39:04.839Z,20.49
2022-11-30T08:44:08.016Z,20.47
2022-11-30T08:49:27.828Z,20.47
2022-11-30T08:54:30.669Z,20.44
2022-11-30T08:59:33.681Z,20.42
2022-11-30T09:04:37.832Z,20.40
2022-11-30T09:09:40.664Z,20.37
2022-11-30T09:14:45.085Z,20.34
2022-11-30T09:19:49.366Z,20.33
2022-11-30T09:24:52.324Z,20.31
2022-11-30T09:29:55.091Z,20.30
2022-11-30T09:34:59.345Z,20.29
2022-11-30T09:40:02.301Z,20.27
2022-11-30T09:45:12.985Z,20.25
2022-11-30T09:50:21.468Z,20.23
2022-11-30T09:55:29.673Z,20.23
2022-11-30T10:00:34.405Z,20.21
2022-11-30T10:05:47.836Z,20.26
2022-11-30T10:11:13.621Z,20.31
2022-11-30T10:16:32.065Z,20.34
2022-11-30T10:21:51.780Z,20.38
2022-11-30T10:26:56.189Z,20.42
2022-11-30T10:32:01.182Z,20.45
2022-11-30T10:37:13.553Z,20.46
2022-11-30T10:42:21.949Z,19.71
2022-11-30T10:47:31.038Z,19.26
2022-11-30T10:52:42.743Z,18.80
2022-11-30T10:57:47.967Z,18.76
2022-11-30T11:02:52.057Z,19.17
2022-11-30T11:08:05.741Z,19.47
2022-11-30T11:13:17.585Z,19.69
2022-11-30T11:18:24.083Z,19.88
2022-11-30T11:23:33.518Z,20.07
2022-11-30T11:28:38.210Z,20.23
2022-11-30T11:33:51.983Z,20.33
2022-11-30T11:38:57.533Z,20.42
2022-11-30T11:44:05.326Z,20.50
2022-11-30T11:49:20.217Z,20.60
2022-11-30T11:54:29.505Z,20.68
2022-11-30T11:59:41.770Z,20.74
2022-11-30T12:04:49.248Z,20.86
2022-11-30T12:10:21.860Z,21.00
2022-11-30T12:15:33.996Z,21.11
2022-11-30T12:20:51.724Z,21.19
2022-11-30T12:26:03.175Z,21.25
2022-11-30T12:31:13.805Z,21.29
2022-11-30T12:36:26.368Z,21.33
2022-11-30T12:41:42.983Z,21.32
2022-11-30T12:46:57.344Z,21.32
2022-11-30T12:52:07.711Z,21.37
2022-11-30T12:57:22.415Z,21.38
2022-11-30T13:02:54.110Z,21.47
2022-11-30T13:08:04.533Z,21.50
2022-11-30T13:13:15.457Z,21.54
2022-11-30T13:18:21.134Z,21.58
2022-11-30T13:23:35.881Z,21.62
2022-11-30T13:29:02.051Z,21.64
2022-11-30T13:34:04.877Z,21.67
2022-11-30T13:39:28.915Z,21.67
2022-11-30T13:44:35.138Z,21.65
2022-11-30T13:49:38.436Z,21.63
2022-11-30T13:54:43.907Z,21.60
2022-11-30T13:59:51.544Z,21.55
2022-11-30T14:04:54.367Z,21.51
2022-11-30T14:10:00.099Z,21.47
2022-11-30T14:15:25.363Z,21.44
2022-11-30T14:20:37.963Z,21.41
2022-11-30T14:25:46.836Z,21.38
2022-11-30T14:30:52.689Z,21.39
2022-11-30T14:47:30.062Z,21.42
2022-11-30T14:52:56.445Z,21.25
2022-11-30T14:58:13.220Z,21.25
2022-11-30T15:03:27.095Z,21.23
2022-11-30T15:08:36.210Z,21.26
2022-11-30T15:13:42.404Z,21.27
2022-11-30T15:18:46.619Z,21.29
2022-11-30T15:23:51.405Z,21.30
2022-11-30T15:28:59.135Z,21.36
2022-11-30T15:34:04.840Z,21.38
2022-11-30T15:39:09.632Z,21.37
2022-11-30T15:44:25.904Z,21.34
2022-11-30T15:49:32.151Z,21.31
2022-11-30T15:54:50.169Z,21.26
2022-11-30T16:00:09.865Z,21.23
2022-11-30T16:05:26.869Z,21.18
2022-11-30T16:10:33.826Z,21.15
2022-11-30T16:15:37.539Z,21.12
2022-11-30T16:20:43.437Z,21.08
2022-11-30T16:25:47.902Z,21.04
2022-11-30T16:30:51.282Z,21.01
2022-11-30T16:35:59.346Z,21.00
2022-11-30T16:41:15.124Z,20.94
2022-11-30T16:46:19.967Z,20.91
2022-11-30T16:51:27.233Z,20.89
2022-11-30T16:56:30.230Z,20.89
2022-11-30T17:01:36.649Z,20.90
2022-11-30T17:06:40.879Z,21.01
2022-11-30T17:11:45.432Z,21.12
2022-11-30T17:16:48.524Z,21.22
2022-11-30T17:21:52.813Z,21.29
2022-11-30T17:26:55.620Z,21.35
2022-11-30T17:31:58.385Z,21.39
2022-11-30T17:37:02.578Z,21.42
2022-11-30T17:42:05.546Z,21.48
2022-11-30T17:47:08.953Z,21.48
2022-11-30T17:52:13.104Z,21.51
2022-11-30T17:57:16.008Z,21.51
2022-11-30T18:02:18.828Z,21.54
2022-11-30T18:07:23.075Z,21.54
2022-11-30T18:12:25.913Z,21.56
2022-11-30T18:17:28.738Z,21.59
2022-11-30T18:22:33.011Z,21.58
2022-11-30T18:27:35.975Z,21.56
2022-11-30T18:32:38.831Z,21.57
2022-11-30T18:37:43.472Z,21.57
2022-11-30T18:42:48.897Z,21.58
2022-11-30T18:47:52.058Z,21.56
2022-11-30T18:52:56.623Z,21.61
2022-11-30T18:58:01.063Z,21.65
2022-11-30T19:03:04.018Z,21.69
2022-11-30T19:08:11.459Z,21.74
2022-11-30T19:13:14.207Z,21.81
2022-11-30T19:18:21.789Z,21.88
2022-11-30T19:23:27.888Z,21.95
2022-11-30T19:28:31.310Z,22.00
2022-11-30T19:33:36.484Z,22.05
2022-11-30T19:38:41.157Z,22.10
2022-11-30T19:43:49.401Z,22.12
2022-11-30T19:48:57.974Z,22.18
2022-11-30T19:54:02.640Z,22.21
2022-11-30T19:59:06.287Z,22.23
2022-11-30T20:04:09.344Z,22.25
2022-11-30T20:09:13.428Z,22.28
2022-11-30T20:14:17.319Z,22.28
2022-11-30T20:19:20.063Z,22.31
2022-11-30T20:24:24.201Z,22.32
2022-11-30T20:29:26.981Z,22.34
2022-11-30T20:34:34.320Z,22.37
2022-11-30T20:39:45.764Z,22.38
2022-11-30T20:44:49.921Z,22.39
2022-11-30T20:49:53.209Z,22.39
2022-11-30T20:54:57.524Z,22.41
2022-11-30T21:00:00.327Z,22.44
2022-11-30T21:05:03.282Z,22.44
2022-11-30T21:10:09.134Z,22.46
2022-11-30T21:15:12.276Z,22.48
2022-11-30T21:20:15.162Z,22.49
2022-11-30T21:25:19.777Z,22.50
2022-11-30T21:30:22.543Z,22.50
2022-11-30T21:35:25.410Z,22.51
2022-11-30T21:40:29.560Z,22.51
2022-11-30T21:45:32.344Z,22.54
2022-11-30T21:50:35.079Z,22.52
2022-11-30T21:55:39.361Z,22.53
2022-11-30T22:00:42.218Z,22.55
2022-11-30T22:05:45.025Z,22.54
2022-11-30T22:10:49.317Z,22.52
2022-11-30T22:15:58.530Z,22.51
2022-11-30T22:21:05.950Z,22.48
2022-11-30T22:26:15.067Z,22.46
2022-11-30T22:31:20.438Z,22.43
2022-11-30T22:36:25.567Z,22.39
2022-11-30T22:41:30.170Z,22.36
2022-11-30T22:46:35.202Z,22.33
2022-11-30T22:51:39.016Z,22.31
2022-11-30T22:56:43.267Z,22.29
2022-11-30T23:01:47.677Z,22.28
2022-11-30T23:06:51.630Z,22.25
2022-11-30T23:11:55.771Z,22.25
2022-11-30T23:16:58.539Z,22.22
2022-11-30T23:22:01.397Z,22.21
2022-11-30T23:27:05.517Z,22.18
2022-11-30T23:32:09.098Z,22.16
2022-11-30T23:37:11.885Z,22.14
2022-11-30T23:42:16.021Z,22.14
2022-11-30T23:47:18.909Z,22.11
2022-11-30T23:52:21.894Z,22.09
2022-11-30T23:57:26.049Z,22.09
